createdAt,value
2022-08-31T00:03:19.484Z,99487.92
2022-08-31T00:08:27.895Z,99489.83
2022-08-31T00:13:35.867Z,99480.98
2022-08-31T00:18:44.808Z,99482.13
2022-08-31T00:23:52.671Z,99481.33
2022-08-31T00:28:59.968Z,99488.48
2022-08-31T00:34:07.438Z,99487.64
2022-08-31T00:39:16.460Z,99486.70
2022-08-31T00:44:24.077Z,99479.55
2022-08-31T00:49:34.373Z,99481.23
2022-08-31T00:54:44.850Z,99477.36
2022-08-31T00:59:53.110Z,99476.76
2022-08-31T01:05:03.352Z,99472.64
2022-08-31T01:10:12.829Z,99474.00
2022-08-31T01:15:20.563Z,99475.27
2022-08-31T01:20:36.197Z,99480.52
2022-08-31T01:25:47.382Z,99477.42
2022-08-31T01:31:11.600Z,99475.73
2022-08-31T01:36:23.590Z,99479.27
2022-08-31T01:41:34.482Z,99479.83
2022-08-31T01:46:42.840Z,99480.66
2022-08-31T01:51:52.589Z,99482.05
2022-08-31T01:57:01.734Z,99481.13
2022-08-31T02:02:09.738Z,99483.70
2022-08-31T02:07:17.495Z,99487.19
2022-08-31T02:12:25.807Z,99486.69
2022-08-31T02:17:35.980Z,99486.26
2022-08-31T02:22:45.171Z,99478.36
2022-08-31T02:27:54.168Z,99477.14
2022-08-31T02:33:03.216Z,99470.89
2022-08-31T02:38:14.057Z,99471.91
2022-08-31T02:43:26.570Z,99473.33
2022-08-31T02:48:36.391Z,99477.32
2022-08-31T02:53:44.997Z,99471.72
2022-08-31T02:58:55.481Z,99476.58
2022-08-31T03:04:13.049Z,99478.00
2022-08-31T03:09:20.853Z,99478.79
2022-08-31T03:14:28.104Z,99479.85
2022-08-31T03:19:36.697Z,99480.05
2022-08-31T03:24:45.135Z,99480.89
2022-08-31T03:29:53.054Z,99485.69
2022-08-31T03:35:02.682Z,99486.91
2022-08-31T03:40:13.163Z,99485.26
2022-08-31T03:45:23.462Z,99480.73
2022-08-31T03:50:31.978Z,99481.52
2022-08-31T03:55:42.984Z,99476.22
2022-08-31T04:00:54.882Z,99474.70
2022-08-31T04:06:03.022Z,99477.08
2022-08-31T04:11:14.437Z,99482.80
2022-08-31T04:16:24.932Z,99481.14
2022-08-31T04:21:33.380Z,99485.94
2022-08-31T04:26:41.962Z,99487.32
2022-08-31T04:31:49.998Z,99490.27
2022-08-31T04:36:58.415Z,99499.55
2022-08-31T04:42:07.688Z,99507.34
2022-08-31T04:47:15.425Z,99504.52
2022-08-31T04:52:23.933Z,99505.91
2022-08-31T04:57:38.899Z,99508.98
2022-08-31T05:02:51.326Z,99507.50
2022-08-31T05:08:01.767Z,99509.52
2022-08-31T05:13:12.385Z,99517.44
2022-08-31T05:18:26.792Z,99514.57
2022-08-31T05:23:35.089Z,99522.59
2022-08-31T05:28:42.671Z,99527.88
2022-08-31T05:33:51.214Z,99523.73
2022-08-31T05:39:02.094Z,99521.92
2022-08-31T05:44:10.727Z,99528.14
2022-08-31T05:49:18.445Z,99532.49
2022-08-31T05:54:26.576Z,99535.11
2022-08-31T05:59:35.654Z,99539.73
2022-08-31T06:04:43.130Z,99540.13
2022-08-31T06:09:50.314Z,99544.64
2022-08-31T06:14:58.009Z,99550.21
2022-08-31T06:20:10.005Z,99555.02
2022-08-31T06:25:19.609Z,99559.09
2022-08-31T06:30:28.327Z,99567.15
2022-08-31T06:42:59.692Z,99575.77
2022-08-31T06:48:08.400Z,99578.98
2022-08-31T06:53:16.660Z,99578.70
2022-08-31T06:58:25.020Z,99581.24
2022-08-31T07:03:34.796Z,99587.21
2022-08-31T07:08:44.585Z,99592.02
2022-08-31T07:13:53.801Z,99594.44
2022-08-31T07:19:06.601Z,99595.80
2022-08-31T07:24:18.527Z,99594.94
2022-08-31T07:29:27.877Z,99591.73
2022-08-31T07:34:36.598Z,99594.19
2022-08-31T07:40:07.166Z,99590.91
2022-08-31T07:45:22.491Z,99589.20
2022-08-31T07:50:31.960Z,99589.44
2022-08-31T07:55:46.076Z,99591.61
2022-08-31T08:00:53.682Z,99594.34
2022-08-31T08:06:01.655Z,99593.66
2022-08-31T08:11:25.719Z,99597.48
2022-08-31T08:16:35.606Z,99599.34
2022-08-31T08:21:46.355Z,99598.02
2022-08-31T08:26:54.948Z,99608.41
2022-08-31T08:32:04.703Z,99612.83
2022-08-31T08:37:41.360Z,99605.56
2022-08-31T08:42:51.756Z,99602.80
2022-08-31T08:48:00.182Z,99603.65
2022-08-31T08:53:15.492Z,99605.59
2022-08-31T08:58:24.385Z,99606.56
2022-08-31T09:03:44.621Z,99599.61
2022-08-31T09:09:12.177Z,99597.91
2022-08-31T09:14:37.810Z,99593.55
2022-08-31T09:20:03.166Z,99588.15
2022-08-31T09:25:12.112Z,99584.27
2022-08-31T09:30:42.689Z,99579.71
2022-08-31T09:35:57.001Z,99578.73
2022-08-31T09:41:08.719Z,99569.52
2022-08-31T09:46:28.269Z,99573.80
2022-08-31T09:51:37.500Z,99571.09
2022-08-31T09:56:56.796Z,99567.70
2022-08-31T10:02:07.878Z,99569.75
2022-08-31T10:07:38.421Z,99562.52
2022-08-31T10:12:52.200Z,99557.63
2022-08-31T10:18:12.241Z,99562.52
2022-08-31T10:23:27.479Z,99565.95
2022-08-31T10:28:38.926Z,99564.55
2022-08-31T10:34:16.992Z,99564.67
2022-08-31T10:39:34.923Z,99565.52
2022-08-31T10:45:00.486Z,99559.46
2022-08-31T10:50:10.737Z,99553.77
2022-08-31T10:55:30.900Z,99550.80
2022-08-31T11:00:50.182Z,99546.27
2022-08-31T11:06:07.260Z,99543.48
2022-08-31T11:11:25.464Z,99547.23
2022-08-31T11:16:59.174Z,99547.62
2022-08-31T11:22:34.977Z,99542.54
2022-08-31T11:27:45.762Z,99540.06
2022-08-31T11:32:58.145Z,99534.52
2022-08-31T11:38:07.776Z,99534.53
2022-08-31T11:43:46.073Z,99527.48
2022-08-31T11:49:02.829Z,99524.54
2022-08-31T11:54:21.815Z,99522.95
2022-08-31T11:59:35.510Z,99514.49
2022-08-31T12:05:03.517Z,99511.55
2022-08-31T12:10:34.356Z,99512.66
2022-08-31T12:16:07.488Z,99499.92
2022-08-31T12:21:43.125Z,99495.17
2022-08-31T12:27:12.679Z,99489.83
2022-08-31T12:32:30.519Z,99485.30
2022-08-31T12:37:41.304Z,99486.65
2022-08-31T12:43:02.996Z,99482.66
2022-08-31T12:48:26.107Z,99479.25
2022-08-31T12:54:03.245Z,99475.91
2022-08-31T12:59:36.282Z,99472.95
2022-08-31T13:04:56.466Z,99473.36
2022-08-31T13:10:12.757Z,99469.42
2022-08-31T13:15:28.250Z,99468.35
2022-08-31T13:20:43.115Z,99464.77
2022-08-31T13:26:05.996Z,99457.48
2022-08-31T13:31:23.737Z,99448.88
2022-08-31T13:36:35.324Z,99446.21
2022-08-31T13:41:56.615Z,99446.98
2022-08-31T13:47:06.336Z,99443.20
2022-08-31T13:52:22.789Z,99445.64
2022-08-31T13:57:35.096Z,99441.91
2022-08-31T14:02:43.368Z,99442.82
2022-08-31T14:07:57.905Z,99443.15
2022-08-31T14:13:12.605Z,99441.42
2022-08-31T14:18:27.999Z,99441.00
2022-08-31T14:23:37.871Z,99440.09
2022-08-31T14:28:47.449Z,99438.30
2022-08-31T14:34:08.808Z,99437.92
2022-08-31T14:39:15.898Z,99434.84
2022-08-31T14:44:26.410Z,99437.35
2022-08-31T14:49:36.619Z,99436.98
2022-08-31T14:54:46.214Z,99438.96
2022-08-31T14:59:58.059Z,99429.58
2022-08-31T15:05:09.299Z,99428.17
2022-08-31T15:10:19.564Z,99435.30
2022-08-31T15:15:26.935Z,99432.95
2022-08-31T15:20:42.879Z,99437.51
2022-08-31T15:25:50.671Z,99437.61
2022-08-31T15:30:58.890Z,99435.70
2022-08-31T15:36:09.703Z,99431.58
2022-08-31T15:41:17.316Z,99433.18
2022-08-31T15:46:44.858Z,99432.80
2022-08-31T15:51:54.244Z,99431.48
2022-08-31T15:57:07.607Z,99432.71
2022-08-31T16:02:20.590Z,99427.48
2022-08-31T16:07:28.101Z,99428.69
2022-08-31T16:12:35.852Z,99428.39
2022-08-31T16:17:44.009Z,99428.27
2022-08-31T16:22:50.978Z,99432.77
2022-08-31T16:28:00.231Z,99433.09
2022-08-31T16:33:07.650Z,99433.72
2022-08-31T16:38:15.536Z,99432.61
2022-08-31T16:43:23.172Z,99432.46
2022-08-31T16:48:47.067Z,99433.92
2022-08-31T16:53:58.903Z,99430.98
2022-08-31T16:59:06.828Z,99437.17
2022-08-31T17:04:29.212Z,99434.05
2022-08-31T17:09:36.907Z,99437.95
2022-08-31T17:14:48.512Z,99440.27
2022-08-31T17:19:57.970Z,99440.83
2022-08-31T17:25:09.785Z,99443.92
2022-08-31T17:30:19.970Z,99441.90
2022-08-31T17:35:29.219Z,99447.77
2022-08-31T17:40:36.669Z,99451.35
2022-08-31T17:45:45.706Z,99453.42
2022-08-31T17:50:53.883Z,99462.27
2022-08-31T17:56:02.202Z,99465.33
2022-08-31T18:01:14.025Z,99470.59
2022-08-31T18:06:21.568Z,99475.24
2022-08-31T18:11:32.157Z,99476.33
2022-08-31T18:16:43.143Z,99478.05
2022-08-31T18:21:54.023Z,99476.46
2022-08-31T18:27:04.255Z,99480.21
2022-08-31T18:32:13.040Z,99484.54
2022-08-31T18:37:22.306Z,99486.27
2022-08-31T18:42:47.613Z,99488.72
2022-08-31T18:53:28.717Z,99492.08
2022-08-31T18:58:37.782Z,99495.96
2022-08-31T19:03:46.493Z,99494.56
2022-08-31T19:08:54.759Z,99493.86
2022-08-31T19:14:03.593Z,99499.88
2022-08-31T19:19:13.484Z,99496.78
2022-08-31T19:24:22.270Z,99499.52
2022-08-31T19:29:33.503Z,99494.83
2022-08-31T19:34:43.690Z,99497.06
2022-08-31T19:39:53.218Z,99494.55
2022-08-31T19:45:25.435Z,99487.56
2022-08-31T19:50:50.390Z,99487.95
2022-08-31T19:56:06.779Z,99488.40
2022-08-31T20:01:14.424Z,99486.36
2022-08-31T20:06:25.489Z,99486.70
2022-08-31T20:11:34.449Z,99490.02
2022-08-31T20:16:43.331Z,99490.24
2022-08-31T20:21:53.321Z,99492.45
2022-08-31T20:27:09.423Z,99494.53
2022-08-31T20:32:21.337Z,99498.58
2022-08-31T20:37:30.273Z,99497.55
2022-08-31T20:42:39.914Z,99504.71
2022-08-31T20:48:07.235Z,99500.42
2022-08-31T20:53:22.535Z,99496.55
2022-08-31T20:58:52.253Z,99498.86
2022-08-31T21:04:04.788Z,99496.94
2022-08-31T21:09:12.942Z,99498.58
2022-08-31T21:14:24.907Z,99494.89
2022-08-31T21:19:38.084Z,99493.31
2022-08-31T21:24:50.122Z,99491.05
2022-08-31T21:30:00.697Z,99491.50
2022-08-31T21:35:19.406Z,99490.05
2022-08-31T21:40:31.265Z,99482.23
2022-08-31T21:45:39.140Z,99481.64
2022-08-31T21:50:48.026Z,99485.09
2022-08-31T21:55:56.691Z,99485.77
2022-08-31T22:01:10.668Z,99484.11
2022-08-31T22:06:26.648Z,99479.90
2022-08-31T22:11:38.708Z,99483.63
2022-08-31T22:16:49.143Z,99484.73
2022-08-31T22:22:01.827Z,99484.45
2022-08-31T22:27:12.536Z,99490.52
2022-08-31T22:32:20.247Z,99494.48
2022-08-31T22:37:28.828Z,99489.16
2022-08-31T22:42:36.748Z,99485.34
2022-08-31T22:47:50.087Z,99484.66
2022-08-31T22:53:01.674Z,99482.69
2022-08-31T22:58:12.941Z,99479.06
2022-08-31T23:03:23.829Z,99478.87
2022-08-31T23:08:32.770Z,99475.20
2022-08-31T23:13:57.874Z,99468.79
2022-08-31T23:19:18.950Z,99468.75
2022-08-31T23:24:45.141Z,99469.48
2022-08-31T23:29:56.411Z,99465.09
2022-08-31T23:35:05.841Z,99468.47
2022-08-31T23:40:18.997Z,99471.48
2022-08-31T23:45:26.461Z,99471.35
2022-08-31T23:50:34.458Z,99468.23
2022-08-31T23:55:47.385Z,99466.38
